Terminal Aerodrome Forecast
Issued by NWS Sioux Falls, SD

Home | Current Version | Previous Version | Text Only | Print | Product List | Glossary On
Versions: 1 2 3 4 5 6 7 8 9 10 11 12 13 14 15 16 17
000
FTUS43 KFSD 190534
TAFSUX
TAF
KSUX 190534Z 1906/2006 34013KT P6SM SCT018 OVC040
     FM190900 01013G20KT P6SM BKN015
     FM191100 01014G23KT 5SM -FZDZ OVC015
     FM191700 01015G25KT P6SM OVC015
     FM200000 01010KT P6SM OVC015=

USA.gov is the U.S. government's official web portal to all federal, state and local government web resources and services.